createdAt,value
2019-05-11T00:00:01.136Z,11.50
2019-05-11T00:02:30.372Z,11.50
2019-05-11T00:04:59.751Z,11.50
2019-05-11T00:07:29.418Z,11.50
2019-05-11T00:09:58.797Z,11.60
2019-05-11T00:12:28.274Z,11.60
2019-05-11T00:14:57.516Z,11.60
2019-05-11T00:17:26.781Z,11.60
2019-05-11T00:19:56.083Z,11.60
2019-05-11T00:22:25.331Z,11.60
2019-05-11T00:24:54.588Z,11.50
2019-05-11T00:27:24.035Z,11.50
2019-05-11T00:29:53.278Z,11.50
2019-05-11T00:32:23.074Z,11.50
2019-05-11T00:34:52.741Z,11.50
2019-05-11T00:37:22.057Z,11.40
2019-05-11T00:39:51.294Z,11.50
2019-05-11T00:42:20.871Z,11.40
2019-05-11T00:44:50.080Z,11.40
2019-05-11T00:47:19.385Z,11.40
2019-05-11T00:49:48.722Z,11.30
2019-05-11T00:52:18.060Z,11.30
2019-05-11T00:54:47.397Z,11.30
2019-05-11T00:57:16.684Z,11.20
2019-05-11T00:59:45.928Z,11.20
2019-05-11T01:02:15.158Z,11.20
2019-05-11T01:04:44.341Z,11.20
2019-05-11T01:07:13.758Z,11.10
2019-05-11T01:09:43.025Z,11.10
2019-05-11T01:12:12.256Z,11.00
2019-05-11T01:14:41.589Z,11.00
2019-05-11T01:17:10.823Z,10.90
2019-05-11T01:19:40.580Z,10.90
2019-05-11T01:22:09.797Z,10.80
2019-05-11T01:24:38.972Z,10.80
2019-05-11T01:27:08.299Z,10.70
2019-05-11T01:29:37.560Z,10.70
2019-05-11T01:32:06.810Z,10.70
2019-05-11T01:34:36.078Z,10.60
2019-05-11T01:37:05.253Z,10.60
2019-05-11T01:39:34.482Z,10.60
2019-05-11T01:42:03.823Z,10.60
2019-05-11T01:44:33.066Z,10.60
2019-05-11T01:47:02.307Z,10.60
2019-05-11T01:49:31.554Z,10.50
2019-05-11T01:52:00.789Z,10.50
2019-05-11T01:54:30.062Z,10.60
2019-05-11T01:56:59.378Z,10.60
2019-05-11T01:59:28.631Z,10.50
2019-05-11T02:01:57.954Z,10.60
2019-05-11T02:04:27.261Z,10.50
2019-05-11T02:06:56.456Z,10.50
2019-05-11T02:09:25.771Z,10.50
2019-05-11T02:11:55.046Z,10.40
2019-05-11T02:14:24.286Z,10.40
2019-05-11T02:16:53.628Z,10.40
2019-05-11T02:19:22.901Z,10.30
2019-05-11T02:21:52.714Z,10.20
2019-05-11T02:24:22.087Z,10.20
2019-05-11T02:26:51.293Z,10.30
2019-05-11T02:29:20.546Z,10.40
2019-05-11T02:31:49.872Z,10.40
2019-05-11T02:34:19.186Z,10.50
2019-05-11T02:36:48.530Z,10.50
2019-05-11T02:39:17.752Z,10.50
2019-05-11T02:41:46.984Z,10.50
2019-05-11T02:44:16.245Z,10.50
2019-05-11T02:46:45.488Z,10.60
2019-05-11T02:49:14.724Z,10.60
2019-05-11T02:51:44.511Z,10.50
2019-05-11T02:54:13.962Z,10.50
2019-05-11T02:56:43.196Z,10.60
2019-05-11T02:59:12.463Z,10.60
2019-05-11T03:01:41.698Z,10.60
2019-05-11T03:04:10.873Z,10.70
2019-05-11T03:06:40.189Z,10.70
2019-05-11T03:09:09.496Z,10.70
2019-05-11T03:11:54.142Z,10.70
2019-05-11T03:14:10.126Z,10.70
2019-05-11T03:16:39.450Z,10.70
2019-05-11T03:19:08.807Z,10.80
2019-05-11T03:21:38.035Z,10.90
2019-05-11T03:24:07.273Z,10.90
2019-05-11T03:26:36.916Z,10.90
2019-05-11T03:29:06.181Z,11.00
2019-05-11T03:31:35.428Z,11.00
2019-05-11T03:34:04.678Z,11.00
2019-05-11T03:36:33.947Z,11.00
2019-05-11T03:39:03.733Z,11.00
2019-05-11T03:41:33.017Z,11.00
2019-05-11T03:44:02.292Z,11.00
2019-05-11T03:46:31.527Z,11.00
2019-05-11T03:49:00.783Z,11.00
2019-05-11T03:51:30.135Z,11.00
2019-05-11T03:53:59.379Z,11.00
2019-05-11T03:56:28.623Z,11.00
2019-05-11T03:58:59.559Z,11.00
2019-05-11T04:01:28.895Z,11.10
2019-05-11T04:03:58.103Z,11.10
2019-05-11T04:06:27.379Z,11.10
2019-05-11T04:08:56.933Z,11.10
2019-05-11T04:11:26.236Z,11.10
2019-05-11T04:13:55.463Z,11.10
2019-05-11T04:16:24.803Z,11.10
2019-05-11T04:18:54.113Z,11.10
2019-05-11T04:21:23.785Z,11.10
2019-05-11T04:23:53.039Z,11.10
2019-05-11T04:26:22.380Z,11.10
2019-05-11T04:28:51.628Z,11.10
2019-05-11T04:31:20.868Z,11.10
2019-05-11T04:33:50.107Z,11.10
2019-05-11T04:36:19.393Z,11.00
2019-05-11T04:38:48.696Z,11.10
2019-05-11T04:41:17.942Z,11.00
2019-05-11T04:43:47.209Z,11.10
2019-05-11T04:46:16.440Z,11.10
2019-05-11T04:48:45.758Z,11.10
2019-05-11T04:51:15.039Z,11.20
2019-05-11T04:53:44.349Z,11.30
2019-05-11T04:56:13.592Z,11.30
2019-05-11T04:58:42.896Z,11.30
2019-05-11T05:01:12.155Z,11.40
2019-05-11T05:03:47.206Z,11.50
2019-05-11T05:06:22.034Z,11.50
2019-05-11T05:08:43.432Z,11.60
2019-05-11T05:11:12.699Z,11.70
2019-05-11T05:13:42.018Z,11.80
2019-05-11T05:16:11.270Z,11.90
2019-05-11T05:18:40.621Z,12.00
2019-05-11T05:21:09.867Z,12.00
2019-05-11T05:23:39.093Z,12.00
2019-05-11T05:26:08.379Z,12.10
2019-05-11T05:28:37.626Z,12.10
2019-05-11T05:31:06.950Z,12.20
2019-05-11T05:33:36.312Z,12.20
2019-05-11T05:36:05.569Z,12.20
2019-05-11T05:38:34.819Z,12.30
2019-05-11T05:41:04.141Z,12.20
2019-05-11T05:43:33.462Z,12.30
2019-05-11T05:46:04.015Z,12.30
2019-05-11T05:48:33.367Z,12.30
2019-05-11T05:51:02.756Z,12.30
2019-05-11T05:53:31.959Z,12.40
2019-05-11T05:56:01.575Z,12.50
2019-05-11T05:58:30.824Z,12.60
2019-05-11T06:01:00.154Z,12.80
2019-05-11T06:03:29.505Z,12.90
2019-05-11T06:05:58.808Z,12.90
2019-05-11T06:08:28.077Z,13.00
2019-05-11T06:10:57.362Z,13.00
2019-05-11T06:13:43.837Z,12.90
2019-05-11T06:15:59.039Z,12.90
2019-05-11T06:21:06.664Z,13.00
2019-05-11T06:23:35.976Z,12.90
2019-05-11T06:26:05.295Z,13.00
2019-05-11T06:28:34.549Z,13.10
2019-05-11T06:31:03.852Z,13.10
2019-05-11T06:33:33.185Z,13.20
2019-05-11T06:36:02.508Z,13.30
2019-05-11T06:38:31.835Z,13.40
2019-05-11T06:41:01.096Z,13.50
2019-05-11T06:43:30.420Z,13.60
2019-05-11T06:45:59.786Z,13.80
2019-05-11T06:48:29.106Z,13.80
2019-05-11T06:50:58.390Z,13.80
2019-05-11T06:53:27.759Z,13.90
2019-05-11T06:55:57.051Z,13.90
2019-05-11T06:58:26.394Z,14.00
2019-05-11T07:00:55.653Z,14.30
2019-05-11T07:03:24.991Z,14.40
2019-05-11T07:05:54.258Z,14.40
2019-05-11T07:08:24.183Z,14.50
2019-05-11T07:10:53.461Z,14.60
2019-05-11T07:13:22.671Z,14.70
2019-05-11T07:15:52.563Z,14.80
2019-05-11T07:18:21.815Z,14.90
2019-05-11T07:20:52.519Z,15.00
2019-05-11T07:23:21.772Z,15.00
2019-05-11T07:25:51.070Z,15.00
2019-05-11T07:28:20.421Z,15.10
2019-05-11T07:30:50.036Z,15.20
2019-05-11T07:33:19.399Z,15.30
2019-05-11T07:35:48.765Z,15.50
2019-05-11T07:38:18.496Z,15.70
2019-05-11T07:40:47.926Z,16.00
2019-05-11T07:43:18.789Z,16.00
2019-05-11T07:45:48.312Z,15.90
2019-05-11T07:48:18.694Z,15.90
2019-05-11T07:50:48.204Z,15.80
2019-05-11T07:53:18.651Z,16.10
2019-05-11T07:55:48.621Z,16.00
2019-05-11T07:58:20.366Z,16.10
2019-05-11T08:00:49.222Z,16.20
2019-05-11T08:03:18.574Z,16.30
2019-05-11T08:05:47.986Z,16.20
2019-05-11T08:08:18.072Z,16.10
2019-05-11T08:10:48.266Z,16.20
2019-05-11T08:13:17.895Z,16.10
2019-05-11T08:15:48.860Z,15.90
2019-05-11T08:18:18.992Z,15.90
2019-05-11T08:20:48.521Z,16.20
2019-05-11T08:23:18.138Z,16.40
2019-05-11T08:25:48.624Z,16.50
2019-05-11T08:28:18.481Z,16.30
2019-05-11T08:30:49.689Z,16.20
2019-05-11T08:33:19.047Z,16.50
2019-05-11T08:35:48.332Z,16.60
2019-05-11T08:38:18.119Z,16.60
2019-05-11T08:40:48.509Z,16.50
2019-05-11T08:43:18.165Z,16.30
2019-05-11T08:45:48.536Z,16.30
2019-05-11T08:48:18.797Z,16.40
2019-05-11T08:50:48.808Z,16.40
2019-05-11T08:53:18.363Z,16.50
2019-05-11T08:55:48.591Z,16.50
2019-05-11T08:58:19.420Z,16.50
2019-05-11T09:00:50.212Z,16.60
2019-05-11T09:03:19.620Z,16.90
2019-05-11T09:05:48.872Z,17.10
2019-05-11T09:08:18.901Z,17.30
2019-05-11T09:10:49.072Z,17.40
2019-05-11T09:13:19.297Z,17.60
2019-05-11T09:15:48.563Z,17.70
2019-05-11T09:18:18.822Z,17.70
2019-05-11T09:20:48.769Z,17.30
2019-05-11T09:23:32.982Z,16.90
2019-05-11T09:25:49.038Z,16.80
2019-05-11T09:28:18.303Z,16.70
2019-05-11T09:30:48.361Z,16.90
2019-05-11T09:33:20.595Z,17.10
2019-05-11T09:35:52.986Z,17.20
2019-05-11T09:38:19.557Z,17.10
2019-05-11T09:40:48.919Z,17.00
2019-05-11T09:43:18.150Z,17.10
2019-05-11T09:45:49.228Z,17.20
2019-05-11T09:48:18.894Z,17.40
2019-05-11T09:50:48.263Z,17.70
2019-05-11T09:53:17.837Z,17.90
2019-05-11T09:55:48.121Z,17.90
2019-05-11T09:58:19.723Z,17.80
2019-05-11T10:00:48.675Z,17.70
2019-05-11T10:03:18.632Z,17.40
2019-05-11T10:05:48.762Z,17.30
2019-05-11T10:08:18.417Z,17.10
2019-05-11T10:10:48.782Z,17.10
2019-05-11T10:13:18.694Z,17.00
2019-05-11T10:16:03.012Z,17.00
2019-05-11T10:18:19.067Z,16.80
2019-05-11T10:20:48.319Z,16.80
2019-05-11T10:23:18.688Z,16.80
2019-05-11T10:25:48.242Z,16.60
2019-05-11T10:28:17.943Z,16.60
2019-05-11T10:30:48.760Z,16.60
2019-05-11T10:33:18.816Z,16.90
2019-05-11T10:35:48.502Z,17.10
2019-05-11T10:38:18.225Z,17.40
2019-05-11T10:40:48.138Z,17.80
2019-05-11T10:43:18.329Z,18.10
2019-05-11T10:45:50.620Z,18.50
2019-05-11T10:48:19.803Z,18.50
2019-05-11T10:50:49.035Z,18.70
2019-05-11T10:53:18.612Z,18.90
2019-05-11T10:55:48.101Z,18.60
2019-05-11T10:58:18.459Z,18.10
2019-05-11T11:00:48.206Z,17.90
2019-05-11T11:03:18.788Z,17.70
2019-05-11T11:05:48.741Z,17.80
2019-05-11T11:08:18.682Z,17.60
2019-05-11T11:10:48.501Z,17.40
2019-05-11T11:13:18.841Z,17.10
2019-05-11T11:15:48.911Z,16.90
2019-05-11T11:18:18.855Z,16.80
2019-05-11T11:20:48.986Z,16.70
2019-05-11T11:23:18.380Z,16.50
2019-05-11T11:25:48.128Z,16.50
2019-05-11T11:28:17.902Z,16.50
2019-05-11T11:30:48.084Z,16.30
2019-05-11T11:33:18.337Z,16.30
2019-05-11T11:35:48.319Z,16.30
2019-05-11T11:38:18.101Z,16.30
2019-05-11T11:40:48.290Z,16.30
2019-05-11T11:43:18.168Z,16.30
2019-05-11T11:45:48.478Z,16.30
2019-05-11T11:48:18.951Z,16.40
2019-05-11T11:50:48.390Z,16.50
2019-05-11T11:53:18.804Z,16.60
2019-05-11T11:55:49.173Z,16.70
2019-05-11T11:58:23.474Z,16.80
2019-05-11T12:00:49.497Z,17.00
2019-05-11T12:03:18.862Z,17.00
2019-05-11T12:05:48.199Z,17.10
2019-05-11T12:08:18.887Z,17.20
2019-05-11T12:10:49.162Z,17.20
2019-05-11T12:13:18.773Z,17.40
2019-05-11T12:15:48.446Z,17.60
2019-05-11T12:18:18.513Z,17.70
2019-05-11T12:20:48.131Z,17.90
2019-05-11T12:23:18.063Z,18.00
2019-05-11T12:25:48.615Z,18.00
2019-05-11T12:28:18.514Z,18.10
2019-05-11T12:30:48.293Z,18.10
2019-05-11T12:33:18.709Z,18.10
2019-05-11T12:35:48.317Z,18.20
2019-05-11T12:38:18.329Z,18.20
2019-05-11T12:40:47.919Z,18.30
2019-05-11T12:43:18.555Z,18.40
2019-05-11T12:45:48.288Z,18.40
2019-05-11T12:48:18.242Z,18.40
2019-05-11T12:50:48.443Z,18.50
2019-05-11T12:53:20.016Z,18.60
2019-05-11T12:55:49.012Z,18.70
2019-05-11T12:58:18.464Z,18.80
2019-05-11T13:00:48.108Z,18.90
2019-05-11T13:03:18.659Z,18.80
2019-05-11T13:05:48.559Z,18.80
2019-05-11T13:08:18.551Z,19.10
2019-05-11T13:10:48.062Z,19.30
2019-05-11T13:13:18.231Z,19.30
2019-05-11T13:15:48.084Z,19.40
2019-05-11T13:18:18.618Z,19.70
2019-05-11T13:20:48.563Z,20.00
2019-05-11T13:23:18.601Z,21.30
2019-05-11T13:25:48.184Z,22.50
2019-05-11T13:28:18.071Z,22.90
2019-05-11T13:30:48.805Z,23.20
2019-05-11T13:33:19.020Z,22.80
2019-05-11T13:35:48.607Z,22.10
2019-05-11T13:38:18.058Z,21.10
2019-05-11T13:40:48.711Z,20.80
2019-05-11T13:43:18.820Z,20.60
2019-05-11T13:45:48.489Z,20.30
2019-05-11T13:48:17.843Z,20.00
2019-05-11T13:50:47.891Z,20.00
2019-05-11T13:53:18.437Z,19.90
2019-05-11T13:55:48.276Z,19.80
2019-05-11T13:58:19.888Z,20.20
2019-05-11T14:00:48.819Z,20.70
2019-05-11T14:03:18.718Z,20.80
2019-05-11T14:05:48.437Z,20.90
2019-05-11T14:08:18.620Z,21.30
2019-05-11T14:10:48.780Z,21.30
2019-05-11T14:13:18.353Z,21.20
2019-05-11T14:15:48.191Z,21.20
2019-05-11T14:18:18.271Z,21.20
2019-05-11T14:20:48.454Z,21.50
2019-05-11T14:23:18.339Z,21.60
2019-05-11T14:25:48.693Z,21.50
2019-05-11T14:28:18.858Z,21.40
2019-05-11T14:30:48.707Z,21.40
2019-05-11T14:33:18.287Z,21.30
2019-05-11T14:35:48.913Z,21.10
2019-05-11T14:38:18.892Z,21.00
2019-05-11T14:40:48.436Z,20.80
2019-05-11T14:43:18.835Z,20.60
2019-05-11T14:45:48.721Z,20.50
2019-05-11T14:48:26.764Z,20.40
2019-05-11T14:50:49.264Z,20.10
2019-05-11T14:53:18.611Z,20.00
2019-05-11T14:55:48.957Z,19.90
2019-05-11T14:58:19.856Z,19.70
2019-05-11T15:00:49.570Z,19.60
2019-05-11T15:03:18.915Z,19.50
2019-05-11T15:05:48.232Z,19.50
2019-05-11T15:08:18.097Z,19.40
2019-05-11T15:10:48.819Z,19.30
2019-05-11T15:13:18.792Z,19.30
2019-05-11T15:15:48.811Z,19.20
2019-05-11T15:18:18.398Z,19.20
2019-05-11T15:20:48.057Z,19.20
2019-05-11T15:23:18.172Z,19.10
2019-05-11T15:25:48.795Z,19.10
2019-05-11T15:28:18.340Z,19.00
2019-05-11T15:30:48.351Z,18.90
2019-05-11T15:33:18.287Z,19.00
2019-05-11T15:35:48.935Z,19.00
2019-05-11T15:38:18.245Z,19.20
2019-05-11T15:40:48.787Z,19.60
2019-05-11T15:43:18.319Z,19.90
2019-05-11T15:45:48.727Z,20.20
2019-05-11T15:48:18.760Z,20.50
2019-05-11T15:50:48.691Z,20.50
2019-05-11T15:53:18.231Z,20.50
2019-05-11T15:55:47.483Z,20.70
2019-05-11T15:58:21.449Z,20.80
2019-05-11T16:00:48.359Z,20.70
2019-05-11T16:03:18.622Z,20.50
2019-05-11T16:05:48.067Z,20.40
2019-05-11T16:08:18.892Z,20.20
2019-05-11T16:10:48.937Z,20.00
2019-05-11T16:13:18.413Z,19.80
2019-05-11T16:15:47.850Z,19.80
2019-05-11T16:18:18.957Z,19.80
2019-05-11T16:20:50.163Z,19.90
2019-05-11T16:23:20.193Z,19.90
2019-05-11T16:25:49.685Z,20.00
2019-05-11T16:28:19.470Z,20.00
2019-05-11T16:30:48.936Z,20.10
2019-05-11T16:33:18.262Z,20.10
2019-05-11T16:35:48.999Z,20.10
2019-05-11T16:38:19.012Z,20.10
2019-05-11T16:40:48.507Z,20.00
2019-05-11T16:43:19.226Z,19.90
2019-05-11T16:45:51.026Z,19.90
2019-05-11T16:48:19.605Z,19.90
2019-05-11T16:50:49.333Z,19.80
2019-05-11T16:53:18.563Z,19.70
2019-05-11T16:55:48.670Z,19.60
2019-05-11T16:58:19.779Z,19.50
2019-05-11T17:00:49.327Z,19.50
2019-05-11T17:03:18.667Z,19.30
2019-05-11T17:05:48.483Z,19.30
2019-05-11T17:08:18.742Z,19.20
2019-05-11T17:10:59.088Z,19.10
2019-05-11T17:13:27.880Z,19.00
2019-05-11T17:15:58.245Z,18.90
2019-05-11T17:18:28.584Z,18.80
2019-05-11T17:20:58.590Z,18.60
2019-05-11T17:23:30.454Z,18.40
2019-05-11T17:25:59.259Z,18.40
2019-05-11T17:28:28.573Z,18.20
2019-05-11T17:30:59.770Z,18.10
2019-05-11T17:33:28.887Z,18.10
2019-05-11T17:35:58.689Z,17.90
2019-05-11T17:38:28.206Z,17.80
2019-05-11T17:40:57.825Z,17.80
2019-05-11T17:43:28.089Z,17.60
2019-05-11T17:45:58.493Z,17.40
2019-05-11T17:48:28.324Z,17.20
2019-05-11T17:50:58.094Z,17.00
2019-05-11T17:53:28.718Z,17.00
2019-05-11T17:55:58.154Z,16.90
2019-05-11T17:58:27.415Z,16.90
2019-05-11T18:00:58.826Z,16.80
2019-05-11T18:03:27.943Z,16.80
2019-05-11T18:05:58.886Z,16.70
2019-05-11T18:08:30.786Z,16.50
2019-05-11T18:10:59.240Z,16.10
2019-05-11T18:13:28.754Z,15.80
2019-05-11T18:15:58.066Z,15.60
2019-05-11T18:18:29.061Z,15.40
2019-05-11T18:20:58.310Z,15.20
2019-05-11T18:23:28.274Z,15.10
2019-05-11T18:25:57.942Z,15.10
2019-05-11T18:28:29.066Z,15.10
2019-05-11T18:30:58.399Z,15.00
2019-05-11T18:33:27.869Z,14.90
2019-05-11T18:35:58.608Z,14.80
2019-05-11T18:38:28.161Z,14.80
2019-05-11T18:40:58.047Z,14.50
2019-05-11T18:43:28.171Z,14.30
2019-05-11T18:45:58.292Z,14.10
2019-05-11T18:48:28.906Z,13.90
2019-05-11T18:50:58.951Z,13.80
2019-05-11T18:53:28.979Z,13.80
2019-05-11T18:55:59.303Z,13.70
2019-05-11T18:58:28.623Z,13.60
2019-05-11T19:00:57.858Z,13.60
2019-05-11T19:03:28.198Z,13.60
2019-05-11T19:05:57.797Z,13.60
2019-05-11T19:08:27.942Z,13.50
2019-05-11T19:10:57.987Z,13.10
2019-05-11T19:13:28.255Z,13.00
2019-05-11T19:15:58.357Z,12.90
2019-05-11T19:18:28.314Z,12.90
2019-05-11T19:20:58.549Z,13.00
2019-05-11T19:23:28.668Z,13.10
2019-05-11T19:25:58.194Z,12.90
2019-05-11T19:28:28.102Z,12.80
2019-05-11T19:30:59.233Z,12.70
2019-05-11T19:33:28.919Z,12.50
2019-05-11T19:35:58.728Z,12.30
2019-05-11T19:38:28.308Z,12.20
2019-05-11T19:40:58.816Z,12.10
2019-05-11T19:43:28.804Z,11.90
2019-05-11T19:45:58.443Z,11.90
2019-05-11T19:48:28.204Z,11.90
2019-05-11T19:51:06.746Z,12.00
2019-05-11T19:53:29.027Z,12.00
2019-05-11T19:55:58.521Z,11.90
2019-05-11T19:58:28.962Z,12.00
2019-05-11T20:00:58.413Z,12.00
2019-05-11T20:03:28.515Z,11.90
2019-05-11T20:05:58.262Z,11.70
2019-05-11T20:08:29.046Z,11.50
2019-05-11T20:10:58.695Z,11.40
2019-05-11T20:13:28.479Z,11.30
2019-05-11T20:15:57.924Z,11.20
2019-05-11T20:18:28.886Z,11.30
2019-05-11T20:20:58.252Z,11.20
2019-05-11T20:23:27.529Z,11.20
2019-05-11T20:25:58.181Z,11.10
2019-05-11T20:28:28.495Z,11.10
2019-05-11T20:30:58.704Z,11.00
2019-05-11T20:33:28.351Z,10.80
2019-05-11T20:35:58.107Z,10.70
2019-05-11T20:38:28.116Z,10.70
2019-05-11T20:40:57.887Z,10.70
2019-05-11T20:43:27.906Z,10.50
2019-05-11T20:45:57.462Z,10.50
2019-05-11T20:48:27.743Z,10.40
2019-05-11T20:50:57.686Z,10.30
2019-05-11T20:53:28.750Z,10.30
2019-05-11T20:55:58.379Z,10.40
2019-05-11T20:58:30.209Z,10.40
2019-05-11T21:01:04.715Z,10.50
2019-05-11T21:03:38.126Z,10.60
2019-05-11T21:06:08.061Z,10.50
2019-05-11T21:08:38.633Z,10.40
2019-05-11T21:11:08.684Z,10.30
2019-05-11T21:13:38.590Z,10.20
2019-05-11T21:16:08.705Z,10.20
2019-05-11T21:18:38.271Z,10.20
2019-05-11T21:21:07.548Z,10.00
2019-05-11T21:23:37.679Z,10.00
2019-05-11T21:26:09.834Z,9.90
2019-05-11T21:28:38.671Z,10.00
2019-05-11T21:31:08.202Z,9.90
2019-05-11T21:33:37.924Z,10.00
2019-05-11T21:36:08.809Z,10.00
2019-05-11T21:38:38.619Z,10.10
2019-05-11T21:41:08.780Z,10.10
2019-05-11T21:43:38.237Z,10.20
2019-05-11T21:46:08.162Z,10.10
2019-05-11T21:48:38.554Z,10.00
2019-05-11T21:51:08.710Z,9.80
2019-05-11T21:53:38.243Z,9.80
2019-05-11T21:56:08.120Z,9.90
2019-05-11T21:58:37.929Z,10.00
2019-05-11T22:01:07.647Z,10.00
2019-05-11T22:03:38.292Z,10.10
2019-05-11T22:06:08.609Z,10.20
2019-05-11T22:08:38.040Z,10.20
2019-05-11T22:11:08.705Z,10.30
2019-05-11T22:13:38.059Z,10.30
2019-05-11T22:16:08.651Z,10.40
2019-05-11T22:18:38.124Z,10.50
2019-05-11T22:21:08.604Z,10.50
2019-05-11T22:23:38.588Z,10.50
2019-05-11T22:26:08.019Z,10.60
2019-05-11T22:28:38.960Z,10.70
2019-05-11T22:31:08.454Z,10.90
2019-05-11T22:33:38.630Z,11.20
2019-05-11T22:36:08.103Z,11.40
2019-05-11T22:38:38.673Z,11.60
2019-05-11T22:41:09.108Z,11.80
2019-05-11T22:43:38.570Z,11.90
2019-05-11T22:46:07.843Z,12.00
2019-05-11T22:48:38.122Z,12.00
2019-05-11T22:51:08.006Z,12.00
2019-05-11T22:53:44.663Z,12.00
2019-05-11T22:56:09.297Z,11.90
2019-05-11T22:58:38.536Z,11.90
2019-05-11T23:01:08.477Z,11.70
2019-05-11T23:03:38.399Z,11.60
2019-05-11T23:06:08.609Z,11.50
2019-05-11T23:08:40.328Z,11.20
2019-05-11T23:11:10.569Z,11.20
2019-05-11T23:13:40.014Z,11.10
2019-05-11T23:16:09.497Z,11.10
2019-05-11T23:18:39.009Z,11.10
2019-05-11T23:21:08.779Z,11.10
2019-05-11T23:23:38.126Z,11.20
2019-05-11T23:26:08.568Z,11.20
2019-05-11T23:28:38.051Z,11.30
2019-05-11T23:31:08.990Z,11.50
2019-05-11T23:33:38.526Z,11.60
2019-05-11T23:36:07.969Z,11.60
2019-05-11T23:38:38.678Z,11.70
2019-05-11T23:41:08.343Z,11.70
2019-05-11T23:43:38.417Z,11.70
2019-05-11T23:46:08.251Z,11.60
2019-05-11T23:48:38.556Z,11.50
2019-05-11T23:51:08.754Z,11.50
2019-05-11T23:53:38.786Z,11.50
2019-05-11T23:56:08.337Z,11.60
2019-05-11T23:58:39.122Z,11.60
